Aviation Digital Data Service (ADDS)

Output produced by TAFs form (1221 UTC 05 May 2016)
found at http://aviationweather.gov/adds/tafs/
 
KTEX 051120Z 0512/0612 13007KT P6SM FEW250 
     FM051500 16007KT P6SM SCT250 
     FM052100 17011G20KT P6SM VCSH BKN250 
     FM060600 15016G25KT P6SM VCSH BKN090 
     FM060900 12011G20KT P6SM VCSH BKN250 
     FM061100 12010KT P6SM BKN250